createdAt,value
2023-05-22T00:00:07.572Z,14.20
2023-05-22T00:02:38.902Z,12.97
2023-05-22T00:05:07.368Z,14.73
2023-05-22T00:07:35.310Z,12.50
2023-05-22T00:10:02.932Z,13.83
2023-05-22T00:12:30.484Z,14.77
2023-05-22T00:14:58.070Z,14.07
2023-05-22T00:17:26.455Z,12.47
2023-05-22T00:19:55.124Z,13.63
2023-05-22T00:22:23.184Z,14.23
2023-05-22T00:24:50.554Z,14.17
2023-05-22T00:27:17.886Z,14.77
2023-05-22T00:29:46.548Z,14.27
2023-05-22T00:32:14.021Z,13.57
2023-05-22T00:34:41.448Z,13.63
2023-05-22T00:37:09.015Z,13.20
2023-05-22T00:39:36.523Z,14.37
2023-05-22T00:42:04.263Z,14.00
2023-05-22T00:44:31.765Z,13.60
2023-05-22T00:46:59.198Z,13.83
2023-05-22T00:49:26.631Z,13.97
2023-05-22T00:51:54.222Z,13.43
2023-05-22T00:54:22.066Z,14.00
2023-05-22T00:56:50.339Z,15.33
2023-05-22T00:59:18.100Z,13.60
2023-05-22T01:01:45.524Z,13.67
2023-05-22T01:04:13.396Z,14.10
2023-05-22T01:06:41.360Z,13.90
2023-05-22T01:09:09.728Z,13.90
2023-05-22T01:11:59.107Z,14.07
2023-05-22T01:14:39.376Z,13.93
2023-05-22T01:17:34.746Z,14.40
2023-05-22T01:20:22.848Z,13.77
2023-05-22T01:23:23.801Z,13.83
2023-05-22T01:26:03.686Z,14.00
2023-05-22T01:28:53.342Z,14.77
2023-05-22T01:31:26.956Z,14.23
2023-05-22T01:34:00.935Z,14.33
2023-05-22T01:36:34.673Z,15.27
2023-05-22T01:39:06.100Z,13.90
2023-05-22T01:41:34.784Z,13.83
2023-05-22T01:44:02.871Z,13.50
2023-05-22T01:46:31.500Z,13.90
2023-05-22T01:48:59.854Z,13.53
2023-05-22T01:51:48.566Z,14.50
2023-05-22T01:54:20.012Z,13.17
2023-05-22T01:56:57.489Z,14.50
2023-05-22T01:59:38.320Z,13.70
2023-05-22T02:02:09.918Z,12.53
2023-05-22T02:04:45.352Z,14.23
2023-05-22T02:07:17.215Z,13.87
2023-05-22T02:09:46.853Z,13.87
2023-05-22T02:12:14.726Z,13.97
2023-05-22T02:14:44.156Z,15.03
2023-05-22T02:17:12.286Z,14.60
2023-05-22T02:19:39.797Z,13.17
2023-05-22T02:22:09.830Z,12.93
2023-05-22T02:24:37.792Z,13.10
2023-05-22T02:27:05.635Z,13.33
2023-05-22T02:29:33.468Z,13.27
2023-05-22T02:32:01.158Z,13.47
2023-05-22T02:34:29.666Z,14.20
2023-05-22T02:36:59.813Z,13.37
2023-05-22T02:39:27.959Z,13.77
2023-05-22T02:41:55.696Z,13.63
2023-05-22T02:44:23.332Z,14.03
2023-05-22T02:46:51.966Z,13.40
2023-05-22T02:49:19.516Z,14.03
2023-05-22T02:51:47.686Z,14.20
2023-05-22T02:54:16.603Z,13.57
2023-05-22T02:56:44.811Z,14.37
2023-05-22T02:59:12.638Z,14.47
2023-05-22T03:01:40.124Z,14.93
2023-05-22T03:04:07.857Z,14.33
2023-05-22T03:06:37.379Z,14.23
2023-05-22T03:09:05.044Z,14.23
2023-05-22T03:11:32.511Z,14.70
2023-05-22T03:14:00.365Z,13.93
2023-05-22T03:16:28.221Z,14.77
2023-05-22T03:19:10.164Z,14.93
2023-05-22T03:21:38.358Z,18.70
2023-05-22T03:24:06.849Z,15.37
2023-05-22T03:26:34.568Z,15.43
2023-05-22T04:24:27.559Z,15.67
2023-05-22T04:26:55.016Z,15.23
2023-05-22T04:29:22.802Z,13.47
2023-05-22T04:31:54.138Z,14.70
2023-05-22T04:34:21.831Z,14.40
2023-05-22T04:36:49.451Z,14.47
2023-05-22T04:39:19.034Z,14.60
2023-05-22T04:41:46.400Z,13.97
2023-05-22T04:44:14.344Z,14.00
2023-05-22T04:46:42.434Z,15.77
2023-05-22T04:49:10.383Z,14.90
2023-05-22T04:51:37.814Z,13.77
2023-05-22T04:54:06.277Z,15.33
2023-05-22T04:56:36.724Z,15.30
2023-05-22T04:59:08.818Z,14.23
2023-05-22T05:01:37.884Z,14.13
2023-05-22T05:04:06.108Z,13.47
2023-05-22T05:06:34.601Z,14.77
2023-05-22T05:09:03.676Z,14.37
2023-05-22T05:11:31.041Z,14.47
2023-05-22T05:13:58.737Z,13.90
2023-05-22T05:16:26.871Z,13.40
2023-05-22T05:18:55.635Z,14.77
2023-05-22T05:21:23.385Z,13.40
2023-05-22T05:23:51.988Z,13.00
2023-05-22T05:26:21.822Z,12.53
2023-05-22T05:28:49.762Z,13.63
2023-05-22T05:31:19.796Z,12.53
2023-05-22T05:34:06.799Z,12.83
2023-05-22T05:36:52.825Z,15.37
2023-05-22T05:39:22.300Z,13.07
2023-05-22T05:41:51.016Z,12.73
2023-05-22T05:44:19.341Z,12.97
2023-05-22T05:46:47.978Z,13.13
2023-05-22T05:49:19.852Z,12.77
2023-05-22T05:51:48.131Z,12.03
2023-05-22T05:54:17.013Z,11.93
2023-05-22T05:56:45.884Z,12.27
2023-05-22T05:59:14.007Z,12.27
2023-05-22T06:02:01.323Z,12.50
2023-05-22T06:04:33.630Z,11.40
2023-05-22T06:07:01.847Z,11.63
2023-05-22T06:09:36.295Z,12.47
2023-05-22T06:12:14.914Z,12.03
2023-05-22T06:14:45.136Z,11.80
2023-05-22T06:17:13.684Z,11.90
2023-05-22T06:19:42.921Z,10.43
2023-05-22T06:22:11.490Z,12.37
2023-05-22T06:24:41.495Z,11.20
2023-05-22T06:27:14.718Z,11.57
2023-05-22T06:29:42.069Z,11.33
2023-05-22T06:32:09.487Z,11.43
2023-05-22T06:34:40.280Z,10.60
2023-05-22T06:37:07.670Z,10.23
2023-05-22T06:39:40.663Z,12.73
2023-05-22T06:42:14.076Z,10.10
2023-05-22T06:45:13.758Z,11.33
2023-05-22T06:47:56.669Z,10.47
2023-05-22T06:50:25.267Z,11.87
2023-05-22T06:52:53.436Z,11.10
2023-05-22T06:55:20.995Z,10.37
2023-05-22T06:58:02.179Z,11.03
2023-05-22T07:00:30.126Z,10.37
2023-05-22T07:03:07.125Z,10.67
2023-05-22T07:05:43.398Z,12.67
2023-05-22T07:08:10.926Z,10.40
2023-05-22T07:10:38.971Z,10.27
2023-05-22T07:13:07.093Z,10.67
2023-05-22T07:15:35.500Z,10.70
2023-05-22T07:18:04.882Z,10.40
2023-05-22T07:20:32.775Z,10.27
2023-05-22T07:23:10.146Z,10.07
2023-05-22T07:25:39.800Z,10.27
2023-05-22T07:28:09.461Z,10.30
2023-05-22T07:30:45.866Z,10.98
2023-05-22T07:33:14.088Z,11.70
2023-05-22T07:35:41.500Z,10.70
2023-05-22T07:38:09.197Z,10.60
2023-05-22T07:40:39.079Z,10.80
2023-05-22T07:43:06.674Z,10.68
2023-05-22T07:45:34.293Z,10.48
2023-05-22T07:48:06.420Z,10.57
2023-05-22T07:50:36.448Z,11.88
2023-05-22T07:53:06.381Z,11.13
2023-05-22T07:55:37.876Z,11.30
2023-05-22T07:58:05.482Z,11.25
2023-05-22T08:00:37.736Z,11.35
2023-05-22T08:03:05.401Z,10.50
2023-05-22T08:05:32.980Z,10.85
2023-05-22T08:08:00.876Z,11.57
2023-05-22T08:10:37.261Z,11.00
2023-05-22T08:13:15.804Z,11.50
2023-05-22T08:15:44.223Z,10.75
2023-05-22T08:18:11.809Z,12.15
2023-05-22T08:20:40.445Z,10.55
2023-05-22T08:23:08.595Z,10.77
2023-05-22T08:25:36.095Z,11.18
2023-05-22T08:28:04.590Z,11.02
2023-05-22T08:30:32.334Z,9.65
2023-05-22T08:32:59.910Z,10.82
2023-05-22T08:35:32.968Z,10.82
2023-05-22T08:38:03.280Z,10.43
2023-05-22T08:40:37.742Z,10.85
2023-05-22T08:43:08.619Z,10.70
2023-05-22T08:45:37.653Z,10.50
2023-05-22T08:48:06.591Z,10.52
2023-05-22T08:50:40.445Z,10.20
2023-05-22T08:53:11.296Z,10.93
2023-05-22T08:55:39.765Z,10.80
2023-05-22T08:58:09.096Z,10.13
2023-05-22T09:00:38.038Z,10.77
2023-05-22T09:03:07.147Z,10.30
2023-05-22T09:05:36.261Z,9.93
2023-05-22T09:08:15.905Z,10.30
2023-05-22T09:10:47.722Z,10.68
2023-05-22T09:13:26.356Z,10.07
2023-05-22T09:15:58.271Z,10.75
2023-05-22T09:18:29.817Z,11.57
2023-05-22T09:20:58.997Z,9.15
2023-05-22T09:23:28.397Z,10.18
2023-05-22T09:25:58.133Z,9.98
2023-05-22T09:28:26.549Z,9.68
2023-05-22T09:30:55.446Z,9.70
2023-05-22T09:33:23.950Z,9.80
2023-05-22T09:35:55.332Z,9.52
2023-05-22T09:38:26.699Z,9.00
2023-05-22T09:40:54.852Z,9.93
2023-05-22T09:43:25.492Z,9.23
2023-05-22T09:46:00.216Z,9.35
2023-05-22T09:48:27.633Z,9.18
2023-05-22T09:50:56.067Z,8.88
2023-05-22T09:53:31.121Z,9.55
2023-05-22T09:56:00.043Z,9.50
2023-05-22T09:58:32.206Z,9.75
2023-05-22T10:01:01.233Z,9.52
2023-05-22T10:03:31.056Z,9.70
2023-05-22T10:06:00.550Z,9.00
2023-05-22T10:08:29.285Z,8.98
2023-05-22T10:10:58.570Z,10.13
2023-05-22T10:13:27.702Z,9.40
2023-05-22T10:15:55.954Z,9.10
2023-05-22T10:18:24.337Z,9.82
2023-05-22T10:20:52.523Z,9.65
2023-05-22T10:23:22.427Z,9.65
2023-05-22T10:25:51.966Z,11.40
2023-05-22T10:28:27.492Z,10.75
2023-05-22T10:31:01.915Z,10.38
2023-05-22T10:34:11.326Z,10.60
2023-05-22T10:36:48.577Z,10.30
2023-05-22T10:39:43.729Z,10.27
2023-05-22T10:42:14.828Z,10.15
2023-05-22T10:44:43.479Z,11.45
2023-05-22T10:47:13.363Z,10.82
2023-05-22T10:49:45.386Z,11.77
2023-05-22T10:52:15.010Z,11.43
2023-05-22T10:54:46.344Z,10.70
2023-05-22T10:57:18.626Z,11.95
2023-05-22T10:59:50.080Z,11.65
2023-05-22T11:02:22.456Z,10.77
2023-05-22T11:04:50.890Z,11.73
2023-05-22T11:07:18.450Z,12.60
2023-05-22T11:09:47.589Z,10.32
2023-05-22T11:12:17.090Z,11.15
2023-05-22T11:15:00.754Z,13.30
2023-05-22T11:17:32.804Z,11.73
2023-05-22T11:20:10.896Z,12.80
2023-05-22T11:22:41.130Z,12.88
2023-05-22T11:25:16.655Z,12.43
2023-05-22T11:27:45.410Z,12.98
2023-05-22T11:30:14.020Z,12.55
2023-05-22T11:32:47.871Z,12.10
2023-05-22T11:35:19.642Z,12.82
2023-05-22T11:37:51.845Z,12.98
2023-05-22T11:40:21.825Z,12.07
2023-05-22T11:42:52.685Z,13.07
2023-05-22T11:45:23.284Z,12.60
2023-05-22T11:47:50.889Z,11.65
2023-05-22T11:50:29.228Z,12.82
2023-05-22T11:53:02.854Z,11.68
2023-05-22T11:55:30.378Z,10.60
2023-05-22T11:57:58.323Z,11.93
2023-05-22T12:00:26.934Z,11.57
2023-05-22T12:02:55.027Z,11.95
2023-05-22T12:05:22.491Z,11.95
2023-05-22T12:07:50.349Z,11.40
2023-05-22T12:10:17.888Z,12.10
2023-05-22T12:12:45.643Z,11.75
2023-05-22T12:15:13.480Z,12.55
2023-05-22T12:17:41.343Z,11.50
2023-05-22T12:20:13.741Z,12.80
2023-05-22T12:22:45.926Z,11.70
2023-05-22T12:25:17.592Z,11.38
2023-05-22T12:27:46.567Z,12.23
2023-05-22T12:30:15.258Z,11.98
2023-05-22T12:32:48.879Z,11.07
2023-05-22T12:35:17.722Z,11.30
2023-05-22T12:37:50.075Z,10.93
2023-05-22T12:40:17.818Z,11.60
2023-05-22T12:42:45.798Z,12.40
2023-05-22T12:45:14.152Z,11.55
2023-05-22T12:47:42.820Z,11.57
2023-05-22T12:50:10.879Z,12.40
2023-05-22T12:52:39.230Z,10.15
2023-05-22T12:55:07.351Z,10.55
2023-05-22T12:57:34.742Z,11.38
2023-05-22T13:00:04.440Z,10.90
2023-05-22T13:02:33.045Z,10.93
2023-05-22T13:05:00.566Z,10.80
2023-05-22T13:07:27.982Z,11.98
2023-05-22T13:09:55.367Z,10.27
2023-05-22T13:12:23.818Z,11.25
2023-05-22T13:14:52.042Z,10.95
2023-05-22T13:17:19.398Z,11.07
2023-05-22T13:19:46.773Z,11.18
2023-05-22T13:22:14.793Z,10.20
2023-05-22T13:24:42.720Z,12.05
2023-05-22T13:27:10.175Z,10.98
2023-05-22T13:29:37.575Z,10.98
2023-05-22T13:32:05.523Z,11.45
2023-05-22T13:34:33.066Z,10.57
2023-05-22T13:37:01.277Z,9.85
2023-05-22T13:39:28.947Z,10.35
2023-05-22T13:41:56.499Z,11.23
2023-05-22T13:44:24.050Z,10.15
2023-05-22T13:46:51.581Z,9.82
2023-05-22T13:49:19.139Z,11.13
2023-05-22T13:51:46.963Z,10.52
2023-05-22T13:54:14.513Z,9.98
2023-05-22T13:56:42.418Z,10.32
2023-05-22T13:59:09.942Z,11.75
2023-05-22T14:01:37.439Z,10.15
2023-05-22T14:04:05.515Z,10.85
2023-05-22T14:06:33.533Z,9.30
2023-05-22T14:09:02.510Z,10.95
2023-05-22T14:11:30.090Z,11.27
2023-05-22T14:13:57.536Z,10.73
2023-05-22T14:16:25.535Z,16.27
2023-05-22T14:18:53.397Z,11.50
2023-05-22T14:21:21.031Z,11.05
2023-05-22T14:23:48.683Z,10.43
2023-05-22T14:26:16.362Z,10.68
2023-05-22T14:28:45.365Z,9.43
2023-05-22T14:31:12.715Z,9.82
2023-05-22T14:33:40.536Z,9.93
2023-05-22T14:36:08.424Z,10.45
2023-05-22T14:38:36.808Z,10.15
2023-05-22T14:41:04.341Z,11.63
2023-05-22T14:43:31.716Z,10.30
2023-05-22T14:45:59.830Z,11.23
2023-05-22T14:48:29.454Z,11.40
2023-05-22T14:50:56.965Z,11.10
2023-05-22T14:53:24.723Z,11.70
2023-05-22T14:55:52.161Z,10.82
2023-05-22T14:58:20.178Z,10.60
2023-05-22T15:00:47.573Z,12.13
2023-05-22T15:03:15.144Z,11.68
2023-05-22T15:05:43.408Z,11.53
2023-05-22T15:08:10.891Z,12.15
2023-05-22T15:10:38.372Z,12.20
2023-05-22T15:13:05.959Z,13.10
2023-05-22T15:15:33.447Z,13.70
2023-05-22T15:18:03.316Z,16.65
2023-05-22T15:20:31.709Z,17.02
2023-05-22T15:22:59.806Z,17.27
2023-05-22T15:25:27.506Z,14.60
2023-05-22T15:27:55.376Z,12.60
2023-05-22T15:30:23.478Z,14.32
2023-05-22T15:32:50.966Z,13.13
2023-05-22T15:35:18.589Z,11.95
2023-05-22T15:37:46.680Z,12.23
2023-05-22T15:40:18.255Z,11.15
2023-05-22T15:42:45.718Z,13.23
2023-05-22T15:45:14.275Z,14.77
2023-05-22T15:47:42.748Z,14.73
2023-05-22T15:50:14.318Z,11.20
2023-05-22T15:52:42.024Z,12.20
2023-05-22T15:55:09.477Z,10.80
2023-05-22T15:57:38.136Z,14.80
2023-05-22T16:00:06.473Z,12.65
2023-05-22T16:02:34.149Z,11.82
2023-05-22T16:05:02.452Z,11.88
2023-05-22T16:07:29.795Z,11.80
2023-05-22T16:09:57.521Z,12.10
2023-05-22T16:12:26.960Z,10.32
2023-05-22T16:15:00.058Z,10.80
2023-05-22T16:17:29.822Z,9.32
2023-05-22T16:19:58.393Z,10.63
2023-05-22T16:22:36.360Z,10.02
2023-05-22T16:25:16.585Z,10.80
2023-05-22T16:27:44.255Z,11.20
2023-05-22T16:30:12.226Z,11.35
2023-05-22T16:32:55.770Z,10.77
2023-05-22T16:35:32.278Z,10.85
2023-05-22T16:38:07.081Z,10.35
2023-05-22T16:40:34.498Z,10.50
2023-05-22T16:43:01.918Z,12.82
2023-05-22T16:45:29.587Z,17.45
2023-05-22T16:47:57.591Z,17.63
2023-05-22T16:50:28.304Z,16.90
2023-05-22T16:52:55.938Z,19.88
2023-05-22T16:55:23.335Z,20.35
2023-05-22T16:57:51.224Z,22.75
2023-05-22T17:00:19.505Z,22.55
2023-05-22T17:02:47.474Z,23.15
2023-05-22T17:05:14.966Z,21.25
2023-05-22T17:07:42.579Z,13.07
2023-05-22T17:10:10.576Z,8.60
2023-05-22T17:12:38.406Z,6.97
2023-05-22T17:15:06.594Z,6.30
2023-05-22T17:17:34.282Z,6.43
2023-05-22T17:20:02.377Z,6.80
2023-05-22T17:22:29.774Z,6.40
2023-05-22T17:24:57.364Z,6.70
2023-05-22T17:27:35.621Z,16.90
2023-05-22T17:30:04.837Z,12.97
2023-05-22T17:32:33.237Z,11.90
2023-05-22T17:35:01.950Z,12.47
2023-05-22T17:37:29.699Z,13.07
2023-05-22T17:39:57.144Z,13.07
2023-05-22T17:42:24.695Z,14.80
2023-05-22T17:44:52.064Z,18.57
2023-05-22T17:47:19.432Z,18.77
2023-05-22T17:49:47.137Z,13.30
2023-05-22T17:52:15.044Z,13.47
2023-05-22T17:54:42.457Z,13.40
2023-05-22T17:57:09.874Z,13.33
2023-05-22T17:59:39.837Z,12.23
2023-05-22T18:02:11.421Z,12.17
2023-05-22T18:04:38.844Z,12.03
2023-05-22T18:07:06.784Z,12.57
2023-05-22T18:09:35.424Z,10.13
2023-05-22T18:12:03.662Z,9.27
2023-05-22T18:14:31.536Z,9.80
2023-05-22T18:16:59.068Z,9.80
2023-05-22T18:19:26.619Z,9.67
2023-05-22T18:21:55.522Z,9.90
2023-05-22T18:24:25.963Z,10.33
2023-05-22T18:26:55.950Z,9.97
2023-05-22T18:29:23.410Z,10.17
2023-05-22T18:31:50.862Z,10.17
2023-05-22T18:34:18.499Z,12.30
2023-05-22T18:36:46.005Z,10.73
2023-05-22T18:39:14.908Z,10.43
2023-05-22T18:41:42.320Z,10.00
2023-05-22T18:44:09.980Z,10.60
2023-05-22T18:46:37.744Z,10.07
2023-05-22T18:49:05.283Z,10.40
2023-05-22T18:51:33.375Z,10.40
2023-05-22T18:54:00.894Z,9.80
2023-05-22T18:56:28.425Z,10.60
2023-05-22T18:58:56.269Z,11.60
2023-05-22T19:01:24.715Z,12.17
2023-05-22T19:03:52.088Z,11.80
2023-05-22T19:06:19.947Z,12.53
2023-05-22T19:08:47.369Z,11.90
2023-05-22T19:11:15.476Z,12.63
2023-05-22T19:13:44.205Z,12.47
2023-05-22T19:16:13.774Z,13.30
2023-05-22T19:18:41.482Z,13.10
2023-05-22T19:21:09.553Z,13.00
2023-05-22T19:23:37.420Z,13.77
2023-05-22T19:26:05.804Z,13.93
2023-05-22T19:28:33.352Z,12.97
2023-05-22T19:31:03.245Z,14.50
2023-05-22T19:33:32.382Z,15.13
2023-05-22T19:36:02.179Z,14.73
2023-05-22T19:38:31.034Z,14.87
2023-05-22T19:40:58.649Z,15.60
2023-05-22T19:43:26.276Z,15.07
2023-05-22T19:45:54.184Z,14.93
2023-05-22T19:48:21.661Z,13.77
2023-05-22T19:50:49.084Z,15.10
2023-05-22T19:53:16.573Z,15.27
2023-05-22T19:55:44.430Z,14.63
2023-05-22T19:58:11.770Z,13.83
2023-05-22T20:00:41.653Z,14.53
2023-05-22T20:03:09.670Z,16.20
2023-05-22T20:05:37.901Z,14.40
2023-05-22T20:08:05.841Z,14.47
2023-05-22T20:10:36.228Z,15.80
2023-05-22T20:13:05.167Z,14.93
2023-05-22T20:15:32.921Z,14.63
2023-05-22T20:18:02.565Z,14.10
2023-05-22T20:20:31.066Z,15.20
2023-05-22T20:22:59.462Z,14.60
2023-05-22T20:25:26.947Z,14.87
2023-05-22T20:27:54.330Z,13.97
2023-05-22T20:30:24.606Z,14.53
2023-05-22T20:32:52.039Z,14.57
2023-05-22T20:35:20.206Z,17.90
2023-05-22T20:37:48.025Z,17.23
2023-05-22T20:40:15.952Z,16.70
2023-05-22T20:42:43.747Z,18.43
2023-05-22T20:45:14.408Z,21.40
2023-05-22T20:47:43.897Z,19.37
2023-05-22T20:50:11.578Z,19.53
2023-05-22T20:52:39.287Z,19.80
2023-05-22T20:55:07.390Z,19.10
2023-05-22T20:57:35.137Z,17.47
2023-05-22T21:00:05.125Z,20.20
2023-05-22T21:02:33.144Z,18.07
2023-05-22T21:05:00.561Z,17.63
2023-05-22T21:07:28.301Z,18.63
2023-05-22T21:09:55.928Z,17.20
2023-05-22T21:12:23.262Z,18.30
2023-05-22T21:14:50.751Z,20.07
2023-05-22T21:17:18.489Z,20.27
2023-05-22T21:19:46.302Z,26.90
2023-05-22T21:22:13.724Z,28.83
2023-05-22T21:24:41.015Z,34.97
2023-05-22T21:27:08.303Z,36.60
2023-05-22T21:29:35.721Z,35.67
2023-05-22T21:32:03.093Z,38.90
2023-05-22T21:34:31.003Z,42.77
2023-05-22T21:36:58.459Z,40.53
2023-05-22T21:39:25.860Z,41.47
2023-05-22T21:41:53.226Z,40.80
2023-05-22T21:44:20.557Z,43.27
2023-05-22T21:46:47.969Z,41.23
2023-05-22T21:49:15.597Z,41.40
2023-05-22T21:51:42.947Z,43.50
2023-05-22T21:54:10.510Z,43.53
2023-05-22T21:56:38.535Z,42.00
2023-05-22T21:59:06.061Z,45.70
2023-05-22T22:01:33.521Z,42.00
2023-05-22T22:04:00.930Z,46.33
2023-05-22T22:06:28.378Z,44.90
2023-05-22T22:08:58.623Z,46.10
2023-05-22T22:11:26.537Z,42.03
2023-05-22T22:13:54.513Z,46.20
2023-05-22T22:16:22.236Z,47.87
2023-05-22T22:18:50.424Z,55.73
2023-05-22T22:21:17.865Z,44.77
2023-05-22T22:23:45.727Z,43.93
2023-05-22T22:26:13.672Z,49.53
2023-05-22T22:28:41.031Z,44.47
2023-05-22T22:31:08.332Z,42.93
2023-05-22T22:33:35.781Z,47.60
2023-05-22T22:36:03.347Z,43.30
2023-05-22T22:38:35.035Z,42.07
2023-05-22T22:41:04.733Z,42.40
2023-05-22T22:43:32.159Z,47.50
2023-05-22T22:46:00.050Z,43.23
2023-05-22T22:48:27.499Z,38.17
2023-05-22T22:50:55.075Z,34.67
2023-05-22T22:53:22.564Z,38.07
2023-05-22T22:55:55.858Z,42.80
2023-05-22T22:58:24.140Z,38.43
2023-05-22T23:00:51.572Z,38.03
2023-05-22T23:03:19.365Z,40.20
2023-05-22T23:05:46.842Z,39.70
2023-05-22T23:08:14.206Z,39.27
2023-05-22T23:10:41.510Z,38.60
2023-05-22T23:13:09.028Z,40.97
2023-05-22T23:15:36.912Z,34.57
2023-05-22T23:18:04.526Z,35.10
2023-05-22T23:20:31.947Z,34.73
2023-05-22T23:22:59.356Z,33.17
2023-05-22T23:25:26.974Z,28.90
2023-05-22T23:27:54.518Z,27.57
2023-05-22T23:30:21.896Z,27.53
2023-05-22T23:32:49.939Z,27.87
2023-05-22T23:35:17.390Z,27.17
2023-05-22T23:37:44.830Z,27.73
2023-05-22T23:40:12.639Z,28.57
2023-05-22T23:42:40.069Z,28.30
2023-05-22T23:45:07.900Z,27.57
2023-05-22T23:47:35.416Z,31.50
2023-05-22T23:50:02.743Z,28.33
2023-05-22T23:52:30.229Z,32.33
2023-05-22T23:54:58.285Z,40.57
2023-05-22T23:57:25.640Z,34.73
2023-05-22T23:59:52.987Z,35.67
